createdAt,value
2024-02-29T00:01:15.852Z,9.21
2024-02-29T00:04:17.936Z,8.93
2024-02-29T00:07:19.748Z,8.93
2024-02-29T00:10:22.115Z,9.17
2024-02-29T00:13:24.419Z,9.27
2024-02-29T00:16:26.217Z,9.31
2024-02-29T00:19:29.080Z,9.29
2024-02-29T00:22:30.927Z,9.15
2024-02-29T00:25:32.716Z,9.15
2024-02-29T00:28:34.546Z,9.09
2024-02-29T00:31:36.479Z,8.95
2024-02-29T00:34:38.266Z,8.81
2024-02-29T00:37:40.124Z,8.84
2024-02-29T00:40:41.905Z,8.87
2024-02-29T00:43:43.747Z,8.89
2024-02-29T00:46:45.580Z,8.93
2024-02-29T00:49:47.360Z,8.89
2024-02-29T00:52:49.083Z,9.00
2024-02-29T00:55:51.120Z,8.96
2024-02-29T00:58:52.904Z,8.95
2024-02-29T01:01:56.648Z,8.76
2024-02-29T01:04:58.788Z,8.81
2024-02-29T01:08:00.567Z,8.89
2024-02-29T01:11:04.792Z,9.03
2024-02-29T01:14:06.729Z,9.14
2024-02-29T01:17:08.485Z,9.21
2024-02-29T01:20:10.861Z,9.22
2024-02-29T01:23:12.596Z,9.14
2024-02-29T01:26:14.676Z,9.12
2024-02-29T01:29:16.483Z,9.03
2024-02-29T01:32:22.792Z,9.09
2024-02-29T01:35:29.000Z,8.97
2024-02-29T01:38:33.133Z,8.78
2024-02-29T01:41:34.897Z,8.63
2024-02-29T01:44:48.295Z,8.74
2024-02-29T01:47:50.069Z,8.60
2024-02-29T01:50:52.099Z,8.53
2024-02-29T01:53:53.885Z,8.60
2024-02-29T01:56:56.733Z,8.68
2024-02-29T01:59:58.889Z,8.82
2024-02-29T02:03:00.680Z,8.83
2024-02-29T02:06:02.492Z,8.78
2024-02-29T02:09:04.985Z,8.85
2024-02-29T02:12:07.217Z,8.85
2024-02-29T02:15:09.562Z,8.92
2024-02-29T02:18:11.377Z,8.83
2024-02-29T02:21:13.178Z,8.89
2024-02-29T02:24:15.014Z,8.73
2024-02-29T02:27:16.825Z,8.67
2024-02-29T02:30:18.584Z,8.56
2024-02-29T02:33:24.205Z,8.51
2024-02-29T02:36:26.021Z,8.53
2024-02-29T02:39:27.912Z,8.43
2024-02-29T02:42:29.714Z,8.56
2024-02-29T02:45:31.868Z,8.51
2024-02-29T02:48:33.686Z,8.55
2024-02-29T02:51:35.453Z,8.37
2024-02-29T02:54:37.845Z,8.32
2024-02-29T02:57:39.680Z,8.22
2024-02-29T03:00:41.497Z,8.23
2024-02-29T03:03:43.309Z,8.07
2024-02-29T03:06:45.104Z,7.94
2024-02-29T03:09:47.501Z,7.68
2024-02-29T03:12:50.326Z,7.56
2024-02-29T03:15:52.144Z,7.45
2024-02-29T03:18:54.147Z,7.32
2024-02-29T03:21:55.952Z,7.04
2024-02-29T03:24:58.369Z,7.15
2024-02-29T03:28:00.193Z,7.13
2024-02-29T03:31:02.107Z,7.19
2024-02-29T03:34:04.214Z,7.24
2024-02-29T03:37:06.213Z,7.13
2024-02-29T03:40:08.945Z,7.18
2024-02-29T03:43:11.953Z,7.23
2024-02-29T03:46:13.844Z,7.28
2024-02-29T03:49:15.715Z,7.20
2024-02-29T03:52:17.641Z,7.22
2024-02-29T03:55:19.462Z,7.17
2024-02-29T03:58:21.382Z,7.02
2024-02-29T04:01:23.489Z,6.94
2024-02-29T04:04:25.368Z,6.82
2024-02-29T04:07:27.108Z,6.84
2024-02-29T04:10:29.080Z,6.87
2024-02-29T04:13:31.855Z,6.86
2024-02-29T04:16:37.876Z,6.88
2024-02-29T04:19:39.660Z,6.83
2024-02-29T04:22:41.604Z,6.71
2024-02-29T04:25:46.451Z,6.69
2024-02-29T04:28:49.486Z,6.81
2024-02-29T04:31:51.256Z,6.70
2024-02-29T04:34:53.949Z,6.72
2024-02-29T04:37:55.732Z,6.72
2024-02-29T04:40:57.493Z,6.60
2024-02-29T04:43:59.241Z,6.66
2024-02-29T04:47:01.094Z,6.66
2024-02-29T04:50:04.413Z,6.72
2024-02-29T04:53:06.302Z,6.81
2024-02-29T04:56:08.144Z,6.87
2024-02-29T04:59:11.258Z,7.03
2024-02-29T05:02:13.176Z,7.11
2024-02-29T05:05:15.446Z,7.04
2024-02-29T05:08:17.239Z,7.09
2024-02-29T05:11:19.110Z,7.06
2024-02-29T05:14:21.261Z,7.09
2024-02-29T05:17:23.131Z,7.19
2024-02-29T05:20:24.971Z,7.12
2024-02-29T05:23:26.748Z,7.11
2024-02-29T05:26:28.489Z,7.08
2024-02-29T05:29:30.266Z,7.08
2024-02-29T05:32:32.125Z,7.11
2024-02-29T05:35:34.430Z,7.12
2024-02-29T05:38:36.189Z,7.06
2024-02-29T05:41:38.168Z,7.20
2024-02-29T05:44:40.639Z,7.26
2024-02-29T05:47:42.650Z,7.10
2024-02-29T05:50:44.475Z,7.05
2024-02-29T05:53:46.362Z,7.24
2024-02-29T05:56:48.187Z,7.34
2024-02-29T05:59:49.955Z,7.37
2024-02-29T06:02:53.108Z,7.39
2024-02-29T06:05:55.225Z,7.45
2024-02-29T06:08:56.988Z,7.49
2024-02-29T06:11:58.757Z,7.55
2024-02-29T06:15:05.240Z,7.55
2024-02-29T06:18:08.481Z,7.64
2024-02-29T06:21:10.329Z,7.79
2024-02-29T06:24:12.127Z,7.81
2024-02-29T06:27:13.883Z,7.91
2024-02-29T06:30:18.012Z,7.95
2024-02-29T06:33:22.683Z,8.11
2024-02-29T06:36:24.769Z,8.19
2024-02-29T06:39:26.628Z,8.25
2024-02-29T06:42:28.430Z,8.38
2024-02-29T06:45:30.223Z,8.43
2024-02-29T06:48:32.317Z,8.42
2024-02-29T06:51:34.806Z,8.53
2024-02-29T06:54:37.152Z,8.51
2024-02-29T06:57:39.135Z,8.61
2024-02-29T07:00:41.830Z,8.79
2024-02-29T07:03:43.710Z,8.85
2024-02-29T07:06:45.581Z,8.83
2024-02-29T07:09:47.893Z,9.02
2024-02-29T07:12:50.482Z,9.17
2024-02-29T07:15:52.656Z,9.33
2024-02-29T07:18:54.534Z,9.39
2024-02-29T07:21:56.375Z,9.48
2024-02-29T07:24:58.380Z,9.62
2024-02-29T07:28:00.305Z,9.70
2024-02-29T07:31:03.023Z,9.73
2024-02-29T07:34:05.113Z,9.79
2024-02-29T07:37:07.295Z,9.96
2024-02-29T07:40:15.227Z,10.08
2024-02-29T07:43:23.441Z,10.33
2024-02-29T07:46:25.521Z,10.40
2024-02-29T07:49:27.961Z,10.65
2024-02-29T07:52:29.835Z,10.79
2024-02-29T07:55:34.579Z,10.95
2024-02-29T07:58:36.399Z,11.01
2024-02-29T08:01:44.092Z,11.07
2024-02-29T08:04:48.989Z,11.15
2024-02-29T08:07:50.818Z,11.19
2024-02-29T08:10:54.744Z,11.23
2024-02-29T08:13:57.306Z,11.37
2024-02-29T08:16:59.731Z,11.36
2024-02-29T08:20:03.815Z,11.37
2024-02-29T08:23:05.723Z,11.54
2024-02-29T08:26:09.073Z,11.70
2024-02-29T08:29:14.668Z,11.82
2024-02-29T08:32:16.779Z,11.87
2024-02-29T08:35:19.871Z,11.95
2024-02-29T08:38:21.920Z,12.08
2024-02-29T08:41:23.724Z,12.27
2024-02-29T08:44:25.454Z,12.36
2024-02-29T08:47:27.259Z,12.59
2024-02-29T08:50:29.084Z,12.71
2024-02-29T08:53:30.858Z,12.75
2024-02-29T08:56:32.653Z,12.95
2024-02-29T08:59:34.843Z,13.13
2024-02-29T09:02:36.731Z,13.20
2024-02-29T09:05:38.503Z,13.30
2024-02-29T09:08:41.072Z,13.49
2024-02-29T09:11:42.884Z,13.48
2024-02-29T09:14:46.224Z,13.70
2024-02-29T09:17:53.822Z,13.80
2024-02-29T09:20:58.449Z,13.99
2024-02-29T09:24:03.762Z,14.11
2024-02-29T09:27:06.029Z,14.15
2024-02-29T09:30:08.085Z,14.24
2024-02-29T09:33:09.843Z,14.29
2024-02-29T09:36:12.453Z,14.36
2024-02-29T09:39:14.360Z,14.36
2024-02-29T09:42:17.213Z,14.40
2024-02-29T09:45:25.419Z,14.39
2024-02-29T09:48:28.750Z,14.50
2024-02-29T09:51:31.653Z,14.41
2024-02-29T09:54:35.577Z,14.22
2024-02-29T09:57:37.783Z,14.47
2024-02-29T10:00:39.680Z,14.56
2024-02-29T10:03:43.487Z,14.60
2024-02-29T10:06:45.968Z,14.75
2024-02-29T10:09:49.406Z,14.90
2024-02-29T10:12:58.235Z,14.92
2024-02-29T10:16:00.215Z,15.03
2024-02-29T10:19:03.768Z,15.12
2024-02-29T10:22:05.671Z,15.20
2024-02-29T10:25:16.593Z,15.28
2024-02-29T10:28:20.478Z,15.30
2024-02-29T10:31:22.298Z,15.41
2024-02-29T10:34:24.618Z,15.52
2024-02-29T10:37:26.494Z,15.31
2024-02-29T10:40:28.391Z,15.61
2024-02-29T10:43:34.802Z,15.71
2024-02-29T10:46:42.952Z,15.76
2024-02-29T10:49:53.557Z,15.90
2024-02-29T10:53:22.469Z,15.83
2024-02-29T10:56:28.692Z,15.92
2024-02-29T10:59:31.739Z,15.85
2024-02-29T11:02:34.003Z,15.90
2024-02-29T11:05:38.158Z,15.94
2024-02-29T11:08:41.101Z,15.90
2024-02-29T11:11:47.985Z,15.97
2024-02-29T11:14:50.121Z,15.99
2024-02-29T11:17:51.933Z,16.05
2024-02-29T11:21:06.844Z,15.94
2024-02-29T11:24:10.897Z,16.00
2024-02-29T11:27:13.484Z,15.89
2024-02-29T11:30:19.980Z,16.13
2024-02-29T11:33:21.875Z,16.24
2024-02-29T11:36:24.813Z,16.40
2024-02-29T11:39:26.613Z,16.56
2024-02-29T11:42:28.515Z,16.59
2024-02-29T11:45:30.458Z,16.64
2024-02-29T11:48:32.249Z,16.51
2024-02-29T11:51:34.073Z,16.64
2024-02-29T11:54:36.000Z,16.72
2024-02-29T11:57:37.827Z,16.77
2024-02-29T12:00:39.778Z,16.60
2024-02-29T12:09:09.724Z,16.41
2024-02-29T12:12:18.929Z,16.58
2024-02-29T12:15:45.053Z,16.60
2024-02-29T12:18:53.883Z,16.63
2024-02-29T12:21:56.059Z,16.59
2024-02-29T12:24:58.667Z,16.53
2024-02-29T12:28:00.826Z,16.67
2024-02-29T12:31:02.670Z,16.63
2024-02-29T12:34:04.688Z,16.65
2024-02-29T12:37:20.395Z,16.71
2024-02-29T12:40:22.383Z,16.70
2024-02-29T12:43:24.258Z,16.66
2024-02-29T12:46:27.637Z,16.61
2024-02-29T12:49:29.646Z,16.75
2024-02-29T12:52:31.709Z,16.86
2024-02-29T12:55:33.654Z,16.95
2024-02-29T12:58:35.599Z,17.15
2024-02-29T13:01:38.989Z,17.25
2024-02-29T13:04:41.467Z,17.41
2024-02-29T13:07:43.886Z,17.56
2024-02-29T13:10:45.646Z,17.75
2024-02-29T13:13:47.679Z,17.84
2024-02-29T13:16:49.824Z,18.01
2024-02-29T13:19:51.543Z,18.14
2024-02-29T13:22:53.285Z,18.09
2024-02-29T13:25:55.508Z,18.00
2024-02-29T13:28:57.469Z,17.94
2024-02-29T13:32:01.207Z,17.81
2024-02-29T13:35:05.284Z,17.80
2024-02-29T13:38:07.147Z,17.70
2024-02-29T13:41:09.126Z,17.70
2024-02-29T13:44:10.971Z,17.65
2024-02-29T13:47:16.429Z,17.62
2024-02-29T13:50:20.540Z,17.58
2024-02-29T13:53:22.451Z,17.54
2024-02-29T13:56:26.743Z,17.48
2024-02-29T13:59:31.622Z,17.55
2024-02-29T14:02:34.171Z,17.59
2024-02-29T14:05:36.257Z,17.54
2024-02-29T14:08:38.086Z,17.53
2024-02-29T14:11:40.727Z,17.62
2024-02-29T14:14:42.768Z,17.57
2024-02-29T14:17:44.632Z,17.54
2024-02-29T14:20:46.412Z,17.58
2024-02-29T14:23:48.190Z,17.60
2024-02-29T14:26:52.668Z,17.49
2024-02-29T14:29:54.522Z,17.43
2024-02-29T14:32:58.838Z,17.40
2024-02-29T14:36:01.016Z,17.28
2024-02-29T14:39:03.396Z,17.18
2024-02-29T14:42:24.195Z,17.17
2024-02-29T14:45:26.390Z,17.04
2024-02-29T14:48:28.307Z,16.98
2024-02-29T14:51:30.256Z,16.92
2024-02-29T14:54:32.332Z,16.86
2024-02-29T14:57:34.788Z,16.71
2024-02-29T15:00:36.574Z,16.57
2024-02-29T15:03:38.490Z,16.59
2024-02-29T15:06:40.994Z,16.49
2024-02-29T15:09:42.991Z,16.48
2024-02-29T15:12:51.810Z,16.41
2024-02-29T15:16:20.905Z,16.28
2024-02-29T15:19:27.030Z,16.21
2024-02-29T15:22:29.192Z,16.14
2024-02-29T15:25:30.998Z,16.02
2024-02-29T15:28:33.632Z,15.95
2024-02-29T15:31:37.110Z,15.87
2024-02-29T15:34:38.905Z,15.72
2024-02-29T15:37:40.703Z,15.71
2024-02-29T15:40:44.359Z,15.65
2024-02-29T15:43:46.914Z,15.56
2024-02-29T15:46:51.364Z,15.51
2024-02-29T15:49:53.242Z,15.45
2024-02-29T15:52:56.265Z,15.38
2024-02-29T15:56:00.183Z,15.34
2024-02-29T15:59:03.154Z,15.29
2024-02-29T16:02:04.963Z,15.24
2024-02-29T16:05:07.200Z,15.19
2024-02-29T16:08:09.090Z,15.12
2024-02-29T16:11:11.636Z,15.05
2024-02-29T16:14:13.865Z,14.97
2024-02-29T16:17:15.657Z,14.90
2024-02-29T16:20:17.685Z,14.85
2024-02-29T16:23:20.249Z,14.79
2024-02-29T16:26:22.316Z,14.74
2024-02-29T16:29:24.073Z,14.69
2024-02-29T16:32:26.193Z,14.66
2024-02-29T16:35:28.176Z,14.58
2024-02-29T16:38:30.233Z,14.50
2024-02-29T16:41:32.359Z,14.47
2024-02-29T16:44:34.325Z,14.39
2024-02-29T16:47:36.256Z,14.24
2024-02-29T16:51:05.965Z,14.12
2024-02-29T16:54:07.805Z,14.19
2024-02-29T16:57:11.958Z,14.10
2024-02-29T17:00:19.231Z,14.00
2024-02-29T17:03:21.635Z,13.92
2024-02-29T17:06:23.884Z,13.73
2024-02-29T17:09:27.731Z,13.82
2024-02-29T17:12:31.900Z,13.73
2024-02-29T17:15:36.573Z,13.76
2024-02-29T17:18:39.921Z,13.64
2024-02-29T17:21:43.009Z,13.56
2024-02-29T17:24:46.682Z,13.61
2024-02-29T17:27:48.616Z,13.55
2024-02-29T17:30:50.644Z,13.58
2024-02-29T17:33:53.129Z,13.48
2024-02-29T17:36:54.939Z,13.44
2024-02-29T17:39:57.159Z,13.45
2024-02-29T17:42:59.334Z,13.43
2024-02-29T17:46:01.430Z,13.38
2024-02-29T17:49:03.731Z,13.36
2024-02-29T17:52:07.558Z,13.26
2024-02-29T17:55:09.690Z,13.25
2024-02-29T17:58:12.012Z,13.31
2024-02-29T18:01:13.930Z,13.31
2024-02-29T18:04:15.753Z,13.30
2024-02-29T18:07:17.682Z,13.28
2024-02-29T18:10:19.811Z,13.22
2024-02-29T18:13:22.014Z,13.24
2024-02-29T18:16:24.182Z,13.21
2024-02-29T18:19:27.227Z,13.08
2024-02-29T18:22:29.515Z,13.05
2024-02-29T18:25:31.460Z,13.07
2024-02-29T18:28:34.824Z,13.02
2024-02-29T18:31:36.904Z,12.97
2024-02-29T18:34:39.139Z,12.95
2024-02-29T18:37:41.496Z,12.91
2024-02-29T18:40:44.809Z,12.87
2024-02-29T18:43:47.377Z,12.77
2024-02-29T18:46:49.290Z,12.77
2024-02-29T18:49:51.317Z,12.73
2024-02-29T18:52:53.461Z,12.70
2024-02-29T18:55:55.595Z,12.64
2024-02-29T18:58:57.967Z,12.56
2024-02-29T19:02:01.575Z,12.62
2024-02-29T19:05:04.304Z,12.66
2024-02-29T19:08:07.026Z,12.67
2024-02-29T19:11:09.099Z,12.73
2024-02-29T19:14:12.534Z,12.79
2024-02-29T19:17:14.374Z,12.85
2024-02-29T19:20:16.633Z,12.83
2024-02-29T19:23:18.534Z,12.89
2024-02-29T19:26:21.563Z,12.93
2024-02-29T19:29:23.339Z,12.86
2024-02-29T19:32:27.160Z,12.87
2024-02-29T19:35:29.317Z,12.85
2024-02-29T19:38:31.134Z,12.87
2024-02-29T19:41:33.310Z,12.82
2024-02-29T19:44:35.361Z,12.84
2024-02-29T19:47:41.670Z,12.82
2024-02-29T19:50:43.449Z,12.85
2024-02-29T19:53:45.533Z,12.88
2024-02-29T19:56:47.940Z,12.92
2024-02-29T19:59:49.928Z,12.90
2024-02-29T20:02:51.775Z,12.84
2024-02-29T20:05:53.887Z,12.86
2024-02-29T20:08:56.094Z,12.87
2024-02-29T20:11:58.185Z,12.79
2024-02-29T20:15:01.505Z,12.77
2024-02-29T20:18:03.755Z,12.73
2024-02-29T20:21:05.981Z,12.73
2024-02-29T20:24:08.798Z,12.67
2024-02-29T20:27:11.168Z,12.49
2024-02-29T20:30:15.787Z,12.47
2024-02-29T20:33:17.681Z,12.41
2024-02-29T20:36:19.479Z,12.39
2024-02-29T20:39:21.299Z,12.32
2024-02-29T20:42:23.097Z,12.28
2024-02-29T20:45:25.892Z,12.23
2024-02-29T20:48:27.663Z,12.20
2024-02-29T20:51:29.531Z,12.14
2024-02-29T20:54:31.846Z,12.09
2024-02-29T20:57:33.807Z,12.04
2024-02-29T21:00:36.253Z,11.95
2024-02-29T21:03:38.037Z,11.94
2024-02-29T21:06:39.861Z,11.89
2024-02-29T21:09:41.752Z,11.81
2024-02-29T21:12:43.837Z,11.75
2024-02-29T21:15:45.684Z,11.73
2024-02-29T21:18:47.451Z,11.69
2024-02-29T21:21:49.312Z,11.67
2024-02-29T21:24:51.134Z,11.64
2024-02-29T21:27:52.986Z,11.60
2024-02-29T21:30:56.251Z,11.55
2024-02-29T21:33:58.450Z,11.54
2024-02-29T21:37:00.556Z,11.52
2024-02-29T21:40:02.793Z,11.50
2024-02-29T21:43:05.013Z,11.49
2024-02-29T21:46:08.689Z,11.40
2024-02-29T21:49:10.500Z,11.42
2024-02-29T21:52:13.001Z,11.29
2024-02-29T21:55:16.483Z,11.34
2024-02-29T21:58:18.931Z,11.27
2024-02-29T22:01:20.860Z,11.23
2024-02-29T22:04:23.180Z,11.14
2024-02-29T22:07:25.128Z,11.13
2024-02-29T22:10:26.998Z,11.10
2024-02-29T22:13:29.002Z,11.09
2024-02-29T22:16:30.886Z,11.06
2024-02-29T22:19:33.326Z,11.00
2024-02-29T22:22:35.802Z,11.03
2024-02-29T22:25:37.626Z,10.98
2024-02-29T22:28:39.370Z,10.93
2024-02-29T22:31:42.279Z,10.91
2024-02-29T22:34:44.185Z,10.89
2024-02-29T22:37:46.048Z,10.84
2024-02-29T22:40:47.823Z,10.80
2024-02-29T22:43:49.859Z,10.78
2024-02-29T22:46:52.559Z,10.83
2024-02-29T22:49:54.375Z,10.82
2024-02-29T22:52:57.928Z,10.86
2024-02-29T22:55:59.953Z,10.88
2024-02-29T22:59:01.826Z,10.86
2024-02-29T23:02:05.169Z,10.91
2024-02-29T23:05:07.337Z,10.98
2024-02-29T23:08:11.363Z,10.99
2024-02-29T23:11:13.492Z,10.99
2024-02-29T23:14:15.441Z,11.03
2024-02-29T23:17:17.525Z,11.03
2024-02-29T23:20:19.470Z,11.07
2024-02-29T23:23:21.268Z,11.09
2024-02-29T23:26:23.032Z,11.06
2024-02-29T23:29:24.887Z,11.06
2024-02-29T23:32:26.623Z,11.09
2024-02-29T23:35:28.381Z,11.10
2024-02-29T23:38:30.110Z,11.08
2024-02-29T23:41:31.930Z,11.05
2024-02-29T23:44:34.207Z,11.03
2024-02-29T23:47:36.010Z,11.06
2024-02-29T23:50:38.305Z,11.02
2024-02-29T23:53:40.109Z,11.00
2024-02-29T23:56:41.894Z,11.01
2024-02-29T23:59:43.656Z,10.95
